sensor_id;sensor_type;location;lat;lon;timestamp;pressure;altitude;pressure_sealevel;temperature
20490;BMP280;10403;54.092;12.122;2024-02-14T00:01:20;101844.56;;;7.17
20490;BMP280;10403;54.092;12.122;2024-02-14T00:03:49;101842.81;;;7.16
20490;BMP280;10403;54.092;12.122;2024-02-14T00:06:16;101853.28;;;7.19
20490;BMP280;10403;54.092;12.122;2024-02-14T00:08:44;101846.31;;;7.18
20490;BMP280;10403;54.092;12.122;2024-02-14T00:11:11;101838.47;;;7.13
20490;BMP280;10403;54.092;12.122;2024-02-14T00:13:38;101835.78;;;7.10
20490;BMP280;10403;54.092;12.122;2024-02-14T00:16:06;101834.00;;;7.07
20490;BMP280;10403;54.092;12.122;2024-02-14T00:18:34;101847.91;;;7.10
20490;BMP280;10403;54.092;12.122;2024-02-14T00:21:01;101850.56;;;7.11
20490;BMP280;10403;54.092;12.122;2024-02-14T00:23:29;101850.56;;;7.11
20490;BMP280;10403;54.092;12.122;2024-02-14T00:25:56;101845.28;;;7.08
20490;BMP280;10403;54.092;12.122;2024-02-14T00:28:23;101844.41;;;7.07
20490;BMP280;10403;54.092;12.122;2024-02-14T00:30:54;101845.25;;;7.05
20490;BMP280;10403;54.092;12.122;2024-02-14T00:33:21;101831.28;;;7.00
20490;BMP280;10403;54.092;12.122;2024-02-14T00:35:49;101846.06;;;7.02
20490;BMP280;10403;54.092;12.122;2024-02-14T00:38:17;101833.03;;;7.01
20490;BMP280;10403;54.092;12.122;2024-02-14T00:40:44;101649.00;;;5.90
20490;BMP280;10403;54.092;12.122;2024-02-14T00:43:12;101836.50;;;7.01
20490;BMP280;10403;54.092;12.122;2024-02-14T00:45:39;101833.84;;;6.98
20490;BMP280;10403;54.092;12.122;2024-02-14T00:48:07;101826.88;;;6.97
20490;BMP280;10403;54.092;12.122;2024-02-14T00:50:35;101818.25;;;7.00
20490;BMP280;10403;54.092;12.122;2024-02-14T00:53:03;101616.78;;;5.82
20490;BMP280;10403;54.092;12.122;2024-02-14T00:55:30;101826.94;;;7.00
20490;BMP280;10403;54.092;12.122;2024-02-14T00:57:58;101821.69;;;6.97
20490;BMP280;10403;54.092;12.122;2024-02-14T01:00:25;101822.59;;;6.99
20490;BMP280;10403;54.092;12.122;2024-02-14T01:02:52;101828.63;;;6.98
20490;BMP280;10403;54.092;12.122;2024-02-14T01:05:20;101816.47;;;6.97
20490;BMP280;10403;54.092;12.122;2024-02-14T01:07:47;101819.03;;;6.96
20490;BMP280;10403;54.092;12.122;2024-02-14T01:10:15;101818.19;;;6.97
20490;BMP280;10403;54.092;12.122;2024-02-14T01:12:42;101811.25;;;6.94
20490;BMP280;10403;54.092;12.122;2024-02-14T01:15:10;101825.13;;;6.96
20490;BMP280;10403;54.092;12.122;2024-02-14T01:17:37;101816.44;;;6.96
20490;BMP280;10403;54.092;12.122;2024-02-14T01:20:06;101818.13;;;6.92
20490;BMP280;10403;54.092;12.122;2024-02-14T01:22:37;101797.22;;;6.88
20490;BMP280;10403;54.092;12.122;2024-02-14T01:25:05;101819.03;;;6.96
20490;BMP280;10403;54.092;12.122;2024-02-14T01:27:33;101811.19;;;6.91
20490;BMP280;10403;54.092;12.122;2024-02-14T01:30:00;101795.34;;;6.79
20490;BMP280;10403;54.092;12.122;2024-02-14T01:32:28;101809.44;;;6.90
20490;BMP280;10403;54.092;12.122;2024-02-14T01:34:57;101812.94;;;6.92
20490;BMP280;10403;54.092;12.122;2024-02-14T01:37:25;101815.53;;;6.92
20490;BMP280;10403;54.092;12.122;2024-02-14T01:39:52;101812.09;;;6.93
20490;BMP280;10403;54.092;12.122;2024-02-14T01:42:20;101805.09;;;6.91
20490;BMP280;10403;54.092;12.122;2024-02-14T01:44:47;101810.38;;;6.94
20490;BMP280;10403;54.092;12.122;2024-02-14T01:47:15;101812.09;;;6.93
20490;BMP280;10403;54.092;12.122;2024-02-14T01:49:42;101801.69;;;6.93
20490;BMP280;10403;54.092;12.122;2024-02-14T01:52:13;101797.25;;;6.89
20490;BMP280;10403;54.092;12.122;2024-02-14T01:54:41;101797.31;;;6.92
20490;BMP280;10403;54.092;12.122;2024-02-14T01:57:08;101793.84;;;6.92
20490;BMP280;10403;54.092;12.122;2024-02-14T01:59:38;101797.31;;;6.92
20490;BMP280;10403;54.092;12.122;2024-02-14T02:02:06;101781.56;;;6.83
20490;BMP280;10403;54.092;12.122;2024-02-14T02:04:34;101787.72;;;6.90
20490;BMP280;10403;54.092;12.122;2024-02-14T02:07:02;101786.81;;;6.88
20490;BMP280;10403;54.092;12.122;2024-02-14T02:09:29;101799.03;;;6.90
20490;BMP280;10403;54.092;12.122;2024-02-14T02:11:58;101785.09;;;6.88
20490;BMP280;10403;54.092;12.122;2024-02-14T02:14:28;101778.97;;;6.83
20490;BMP280;10403;54.092;12.122;2024-02-14T02:17:14;101783.34;;;6.87
20490;BMP280;10403;54.092;12.122;2024-02-14T02:19:43;101790.31;;;6.88
20490;BMP280;10403;54.092;12.122;2024-02-14T02:22:10;101780.75;;;6.87
20490;BMP280;10403;54.092;12.122;2024-02-14T02:24:38;101785.94;;;6.87
20490;BMP280;10403;54.092;12.122;2024-02-14T02:27:05;101775.47;;;6.83
20490;BMP280;10403;54.092;12.122;2024-02-14T02:29:32;101779.00;;;6.85
20490;BMP280;10403;54.092;12.122;2024-02-14T02:32:00;101782.44;;;6.84
20490;BMP280;10403;54.092;12.122;2024-02-14T02:34:27;101780.69;;;6.83
20490;BMP280;10403;54.092;12.122;2024-02-14T02:36:55;101779.78;;;6.81
20490;BMP280;10403;54.092;12.122;2024-02-14T02:39:23;101772.81;;;6.80
20490;BMP280;10403;54.092;12.122;2024-02-14T02:41:50;101779.75;;;6.79
20490;BMP280;10403;54.092;12.122;2024-02-14T02:44:18;101782.34;;;6.79
20490;BMP280;10403;54.092;12.122;2024-02-14T02:46:45;101774.53;;;6.79
20490;BMP280;10403;54.092;12.122;2024-02-14T02:49:13;101775.38;;;6.78
20490;BMP280;10403;54.092;12.122;2024-02-14T02:51:41;101772.75;;;6.77
20490;BMP280;10403;54.092;12.122;2024-02-14T02:54:08;101762.28;;;6.72
20490;BMP280;10403;54.092;12.122;2024-02-14T02:56:38;101770.16;;;6.77
20490;BMP280;10403;54.092;12.122;2024-02-14T02:59:05;101765.81;;;6.77
20490;BMP280;10403;54.092;12.122;2024-02-14T03:01:36;101770.16;;;6.77
20490;BMP280;10403;54.092;12.122;2024-02-14T03:04:04;101766.66;;;6.76
20490;BMP280;10403;54.092;12.122;2024-02-14T03:06:31;101748.31;;;6.67
20490;BMP280;10403;54.092;12.122;2024-02-14T03:08:58;101764.06;;;6.75
20490;BMP280;10403;54.092;12.122;2024-02-14T03:11:27;101754.47;;;6.72
20490;BMP280;10403;54.092;12.122;2024-02-14T03:13:54;101757.97;;;6.73
20490;BMP280;10403;54.092;12.122;2024-02-14T03:16:22;101756.19;;;6.72
20490;BMP280;10403;54.092;12.122;2024-02-14T03:18:51;101758.78;;;6.70
20490;BMP280;10403;54.092;12.122;2024-02-14T03:21:21;101757.09;;;6.72
20490;BMP280;10403;54.092;12.122;2024-02-14T03:23:48;101755.31;;;6.71
20490;BMP280;10403;54.092;12.122;2024-02-14T03:26:34;101750.97;;;6.70
20490;BMP280;10403;54.092;12.122;2024-02-14T03:29:03;101758.78;;;6.70
20490;BMP280;10403;54.092;12.122;2024-02-14T03:31:33;101752.69;;;6.69
20490;BMP280;10403;54.092;12.122;2024-02-14T03:34:01;101747.47;;;6.68
20490;BMP280;10403;54.092;12.122;2024-02-14T03:36:29;101731.66;;;6.57
20490;BMP280;10403;54.092;12.122;2024-02-14T03:38:59;101748.31;;;6.67
20490;BMP280;10403;54.092;12.122;2024-02-14T03:41:31;101729.94;;;6.58
20490;BMP280;10403;54.092;12.122;2024-02-14T03:43:58;101729.09;;;6.59
20490;BMP280;10403;54.092;12.122;2024-02-14T03:46:28;101743.94;;;6.66
20490;BMP280;10403;54.092;12.122;2024-02-14T03:48:55;101741.34;;;6.66
20490;BMP280;10403;54.092;12.122;2024-02-14T03:51:23;101740.50;;;6.65
20490;BMP280;10403;54.092;12.122;2024-02-14T03:53:51;101741.34;;;6.66
20490;BMP280;10403;54.092;12.122;2024-02-14T03:56:18;101743.09;;;6.67
20490;BMP280;10403;54.092;12.122;2024-02-14T03:58:46;101742.22;;;6.66
20490;BMP280;10403;54.092;12.122;2024-02-14T04:01:15;101738.72;;;6.63
20490;BMP280;10403;54.092;12.122;2024-02-14T04:03:42;101748.31;;;6.67
20490;BMP280;10403;54.092;12.122;2024-02-14T04:06:10;101743.09;;;6.67
20490;BMP280;10403;54.092;12.122;2024-02-14T04:08:38;101734.47;;;6.68
20490;BMP280;10403;54.092;12.122;2024-02-14T04:11:05;101736.22;;;6.69
20490;BMP280;10403;54.092;12.122;2024-02-14T04:13:32;101742.25;;;6.68
20490;BMP280;10403;54.092;12.122;2024-02-14T04:15:59;101735.34;;;6.68
20490;BMP280;10403;54.092;12.122;2024-02-14T04:18:27;101736.22;;;6.69
20490;BMP280;10403;54.092;12.122;2024-02-14T04:20:55;101732.75;;;6.68
20490;BMP280;10403;54.092;12.122;2024-02-14T04:23:23;101738.84;;;6.71
20490;BMP280;10403;54.092;12.122;2024-02-14T04:25:52;101733.59;;;6.67
20490;BMP280;10403;54.092;12.122;2024-02-14T04:28:19;101736.25;;;6.71
20490;BMP280;10403;54.092;12.122;2024-02-14T04:30:46;101729.31;;;6.71
20490;BMP280;10403;54.092;12.122;2024-02-14T04:33:15;101723.22;;;6.69
20490;BMP280;10403;54.092;12.122;2024-02-14T04:35:43;101733.69;;;6.72
20490;BMP280;10403;54.092;12.122;2024-02-14T04:38:10;101727.63;;;6.73
20490;BMP280;10403;54.092;12.122;2024-02-14T04:40:37;101727.63;;;6.73
20490;BMP280;10403;54.092;12.122;2024-02-14T04:43:05;101723.31;;;6.74
20490;BMP280;10403;54.092;12.122;2024-02-14T04:45:32;101720.69;;;6.72
20490;BMP280;10403;54.092;12.122;2024-02-14T04:48:00;101725.94;;;6.75
20490;BMP280;10403;54.092;12.122;2024-02-14T04:50:27;101721.59;;;6.74
20490;BMP280;10403;54.092;12.122;2024-02-14T04:52:55;101713.69;;;6.69
20490;BMP280;10403;54.092;12.122;2024-02-14T04:55:22;101711.09;;;6.69
20490;BMP280;10403;54.092;12.122;2024-02-14T04:57:49;101720.75;;;6.75
20490;BMP280;10403;54.092;12.122;2024-02-14T05:00:17;101710.28;;;6.72
20490;BMP280;10403;54.092;12.122;2024-02-14T05:02:45;101715.53;;;6.75
20490;BMP280;10403;54.092;12.122;2024-02-14T05:05:12;101712.88;;;6.72
20490;BMP280;10403;54.092;12.122;2024-02-14T05:07:39;101712.94;;;6.77
20490;BMP280;10403;54.092;12.122;2024-02-14T05:10:07;101709.50;;;6.78
20490;BMP280;10403;54.092;12.122;2024-02-14T05:12:35;101634.13;;;6.29
20490;BMP280;10403;54.092;12.122;2024-02-14T05:15:03;101704.16;;;6.70
20490;BMP280;10403;54.092;12.122;2024-02-14T05:17:31;101706.81;;;6.73
20490;BMP280;10403;54.092;12.122;2024-02-14T05:19:59;101708.59;;;6.74
20490;BMP280;10403;54.092;12.122;2024-02-14T05:22:26;101709.47;;;6.75
20490;BMP280;10403;54.092;12.122;2024-02-14T05:24:54;101706.81;;;6.73
20490;BMP280;10403;54.092;12.122;2024-02-14T05:27:21;101705.91;;;6.71
20490;BMP280;10403;54.092;12.122;2024-02-14T05:29:49;101707.69;;;6.72
20490;BMP280;10403;54.092;12.122;2024-02-14T05:32:16;101711.16;;;6.73
20490;BMP280;10403;54.092;12.122;2024-02-14T05:34:43;101709.41;;;6.72
20490;BMP280;10403;54.092;12.122;2024-02-14T05:37:10;101699.88;;;6.72
20490;BMP280;10403;54.092;12.122;2024-02-14T05:39:39;101699.88;;;6.72
20490;BMP280;10403;54.092;12.122;2024-02-14T05:42:06;101706.81;;;6.73
20490;BMP280;10403;54.092;12.122;2024-02-14T05:44:34;101712.03;;;6.73
20490;BMP280;10403;54.092;12.122;2024-02-14T05:47:02;101702.50;;;6.74
20490;BMP280;10403;54.092;12.122;2024-02-14T05:49:29;101699.00;;;6.72
20490;BMP280;10403;54.092;12.122;2024-02-14T05:51:56;101704.19;;;6.72
20490;BMP280;10403;54.092;12.122;2024-02-14T05:54:24;101699.06;;;6.76
20490;BMP280;10403;54.092;12.122;2024-02-14T05:56:52;101693.00;;;6.76
20490;BMP280;10403;54.092;12.122;2024-02-14T05:59:19;101697.31;;;6.74
20490;BMP280;10403;54.092;12.122;2024-02-14T06:01:46;101692.88;;;6.69
20490;BMP280;10403;54.092;12.122;2024-02-14T06:04:13;101679.81;;;6.66
20490;BMP280;10403;54.092;12.122;2024-02-14T06:06:41;101692.06;;;6.72
20490;BMP280;10403;54.092;12.122;2024-02-14T06:09:08;101689.47;;;6.72
20490;BMP280;10403;54.092;12.122;2024-02-14T06:11:38;101691.22;;;6.73
20490;BMP280;10403;54.092;12.122;2024-02-14T06:14:07;101682.47;;;6.68
20490;BMP280;10403;54.092;12.122;2024-02-14T06:16:35;101684.31;;;6.74
20490;BMP280;10403;54.092;12.122;2024-02-14T06:19:04;101692.97;;;6.74
20490;BMP280;10403;54.092;12.122;2024-02-14T06:21:34;101696.44;;;6.73
20490;BMP280;10403;54.092;12.122;2024-02-14T06:24:01;101683.25;;;6.62
20490;BMP280;10403;54.092;12.122;2024-02-14T06:26:31;101670.16;;;6.58
20490;BMP280;10403;54.092;12.122;2024-02-14T06:29:00;101693.84;;;6.75
20490;BMP280;10403;54.092;12.122;2024-02-14T06:31:27;101688.66;;;6.75
20490;BMP280;10403;54.092;12.122;2024-02-14T06:33:55;101696.47;;;6.76
20490;BMP280;10403;54.092;12.122;2024-02-14T06:36:22;101698.22;;;6.76
20490;BMP280;10403;54.092;12.122;2024-02-14T06:38:50;101693.00;;;6.77
20490;BMP280;10403;54.092;12.122;2024-02-14T06:41:18;101698.19;;;6.74
20490;BMP280;10403;54.092;12.122;2024-02-14T06:43:47;101696.44;;;6.73
20490;BMP280;10403;54.092;12.122;2024-02-14T06:46:14;101706.00;;;6.77
20490;BMP280;10403;54.092;12.122;2024-02-14T06:48:42;101708.59;;;6.77
20490;BMP280;10403;54.092;12.122;2024-02-14T06:51:09;101706.81;;;6.73
20490;BMP280;10403;54.092;12.122;2024-02-14T06:53:37;101699.03;;;6.73
20490;BMP280;10403;54.092;12.122;2024-02-14T06:56:04;101699.03;;;6.73
20490;BMP280;10403;54.092;12.122;2024-02-14T06:58:32;101710.38;;;6.78
20490;BMP280;10403;54.092;12.122;2024-02-14T07:00:59;101698.97;;;6.70
20490;BMP280;10403;54.092;12.122;2024-02-14T07:03:26;101706.91;;;6.79
20490;BMP280;10403;54.092;12.122;2024-02-14T07:05:54;101708.69;;;6.80
20490;BMP280;10403;54.092;12.122;2024-02-14T07:08:21;101699.97;;;6.78
20490;BMP280;10403;54.092;12.122;2024-02-14T07:10:49;101700.91;;;6.82
20490;BMP280;10403;54.092;12.122;2024-02-14T07:13:16;101709.59;;;6.82
20490;BMP280;10403;54.092;12.122;2024-02-14T07:15:43;101648.28;;;6.47
20490;BMP280;10403;54.092;12.122;2024-02-14T07:18:11;101706.09;;;6.82
20490;BMP280;10403;54.092;12.122;2024-02-14T07:20:38;101693.78;;;6.72
20490;BMP280;10403;54.092;12.122;2024-02-14T07:23:05;101713.88;;;6.80
20490;BMP280;10403;54.092;12.122;2024-02-14T07:25:33;101705.13;;;6.75
20490;BMP280;10403;54.092;12.122;2024-02-14T07:28:00;101709.56;;;6.81
20490;BMP280;10403;54.092;12.122;2024-02-14T07:30:27;101711.34;;;6.83
20490;BMP280;10403;54.092;12.122;2024-02-14T07:32:54;101705.28;;;6.84
20490;BMP280;10403;54.092;12.122;2024-02-14T07:35:22;101701.75;;;6.81
20490;BMP280;10403;54.092;12.122;2024-02-14T07:37:49;101680.84;;;6.76
20490;BMP280;10403;54.092;12.122;2024-02-14T07:40:16;101688.75;;;6.81
20490;BMP280;10403;54.092;12.122;2024-02-14T07:42:44;101694.03;;;6.87
20490;BMP280;10403;54.092;12.122;2024-02-14T07:45:12;101674.84;;;6.79
20490;BMP280;10403;54.092;12.122;2024-02-14T07:47:40;101700.97;;;6.86
20490;BMP280;10403;54.092;12.122;2024-02-14T07:50:08;101673.09;;;6.79
20490;BMP280;10403;54.092;12.122;2024-02-14T07:52:35;101682.75;;;6.86
20490;BMP280;10403;54.092;12.122;2024-02-14T07:55:04;101686.25;;;6.88
20490;BMP280;10403;54.092;12.122;2024-02-14T07:57:31;101682.84;;;6.91
20490;BMP280;10403;54.092;12.122;2024-02-14T07:59:58;101675.06;;;6.92
20490;BMP280;10403;54.092;12.122;2024-02-14T08:02:26;101678.53;;;6.93
20490;BMP280;10403;54.092;12.122;2024-02-14T08:04:54;101667.22;;;6.91
20490;BMP280;10403;54.092;12.122;2024-02-14T08:07:22;101669.88;;;6.92
20490;BMP280;10403;54.092;12.122;2024-02-14T08:09:49;101661.25;;;6.95
20490;BMP280;10403;54.092;12.122;2024-02-14T08:12:16;101656.03;;;6.96
20490;BMP280;10403;54.092;12.122;2024-02-14T08:14:44;101642.88;;;6.87
20490;BMP280;10403;54.092;12.122;2024-02-14T08:17:11;101663.00;;;6.97
20490;BMP280;10403;54.092;12.122;2024-02-14T08:19:38;101656.88;;;6.95
20490;BMP280;10403;54.092;12.122;2024-02-14T08:22:06;101656.94;;;6.98
20490;BMP280;10403;54.092;12.122;2024-02-14T08:24:35;101651.69;;;6.95
20490;BMP280;10403;54.092;12.122;2024-02-14T08:27:02;101633.38;;;6.88
20490;BMP280;10403;54.092;12.122;2024-02-14T08:29:33;101658.75;;;7.02
20490;BMP280;10403;54.092;12.122;2024-02-14T08:32:01;101637.81;;;6.93
20490;BMP280;10403;54.092;12.122;2024-02-14T08:34:28;101644.75;;;6.94
20490;BMP280;10403;54.092;12.122;2024-02-14T08:36:56;101657.06;;;7.04
20490;BMP280;10403;54.092;12.122;2024-02-14T08:39:23;101610.78;;;6.84
20490;BMP280;10403;54.092;12.122;2024-02-14T08:41:50;101644.06;;;7.07
20490;BMP280;10403;54.092;12.122;2024-02-14T08:44:18;101636.31;;;7.11
20490;BMP280;10403;54.092;12.122;2024-02-14T08:46:46;101641.53;;;7.11
20490;BMP280;10403;54.092;12.122;2024-02-14T08:49:15;101636.38;;;7.14
20490;BMP280;10403;54.092;12.122;2024-02-14T08:51:42;101615.44;;;7.07
20490;BMP280;10403;54.092;12.122;2024-02-14T08:54:13;101438.09;;;6.09
20490;BMP280;10403;54.092;12.122;2024-02-14T08:56:43;101622.59;;;7.22
20490;BMP280;10403;54.092;12.122;2024-02-14T08:59:10;101619.09;;;7.20
20490;BMP280;10403;54.092;12.122;2024-02-14T09:01:39;101603.34;;;7.10
20490;BMP280;10403;54.092;12.122;2024-02-14T09:04:06;101626.09;;;7.23
20490;BMP280;10403;54.092;12.122;2024-02-14T09:06:34;101620.88;;;7.23
20490;BMP280;10403;54.092;12.122;2024-02-14T09:09:02;101619.16;;;7.25
20490;BMP280;10403;54.092;12.122;2024-02-14T09:11:29;101630.44;;;7.25
20490;BMP280;10403;54.092;12.122;2024-02-14T09:13:58;101624.38;;;7.26
20490;BMP280;10403;54.092;12.122;2024-02-14T09:16:34;101626.09;;;7.26
20490;BMP280;10403;54.092;12.122;2024-02-14T09:19:01;101609.56;;;7.21
20490;BMP280;10403;54.092;12.122;2024-02-14T09:21:29;101621.78;;;7.26
20490;BMP280;10403;54.092;12.122;2024-02-14T09:23:56;101623.53;;;7.27
20490;BMP280;10403;54.092;12.122;2024-02-14T09:26:24;101620.03;;;7.24
20490;BMP280;10403;54.092;12.122;2024-02-14T09:28:55;101621.81;;;7.29
20490;BMP280;10403;54.092;12.122;2024-02-14T09:31:22;101626.22;;;7.32
20490;BMP280;10403;54.092;12.122;2024-02-14T09:33:50;101627.09;;;7.32
20490;BMP280;10403;54.092;12.122;2024-02-14T09:36:18;101626.22;;;7.32
20490;BMP280;10403;54.092;12.122;2024-02-14T09:38:47;101627.09;;;7.32
20490;BMP280;10403;54.092;12.122;2024-02-14T09:41:19;101621.84;;;7.31
20490;BMP280;10403;54.092;12.122;2024-02-14T09:43:49;101628.84;;;7.33
20490;BMP280;10403;54.092;12.122;2024-02-14T09:46:16;101608.78;;;7.28
20490;BMP280;10403;54.092;12.122;2024-02-14T09:48:45;101634.97;;;7.40
20490;BMP280;10403;54.092;12.122;2024-02-14T09:51:13;101630.66;;;7.40
20490;BMP280;10403;54.092;12.122;2024-02-14T09:53:41;101630.69;;;7.42
20490;BMP280;10403;54.092;12.122;2024-02-14T09:56:10;101631.53;;;7.41
20490;BMP280;10403;54.092;12.122;2024-02-14T09:58:45;101634.13;;;7.41
20490;BMP280;10403;54.092;12.122;2024-02-14T10:01:24;101621.13;;;7.41
20490;BMP280;10403;54.092;12.122;2024-02-14T10:08:32;101625.50;;;7.45
20490;BMP280;10403;54.092;12.122;2024-02-14T10:11:00;101620.28;;;7.45
20490;BMP280;10403;54.092;12.122;2024-02-14T10:13:28;101605.44;;;7.38
20490;BMP280;10403;54.092;12.122;2024-02-14T10:15:56;101625.50;;;7.47
20490;BMP280;10403;54.092;12.122;2024-02-14T10:18:23;101622.94;;;7.48
20490;BMP280;10403;54.092;12.122;2024-02-14T10:20:56;101627.38;;;7.54
20490;BMP280;10403;54.092;12.122;2024-02-14T10:23:27;101614.25;;;7.48
20490;BMP280;10403;54.092;12.122;2024-02-14T10:25:56;101621.19;;;7.47
20490;BMP280;10403;54.092;12.122;2024-02-14T10:28:24;101610.75;;;7.44
20490;BMP280;10403;54.092;12.122;2024-02-14T10:31:05;101616.06;;;7.53
20490;BMP280;10403;54.092;12.122;2024-02-14T10:33:32;101622.19;;;7.58
20490;BMP280;10403;54.092;12.122;2024-02-14T10:36:01;101609.09;;;7.51
20490;BMP280;10403;54.092;12.122;2024-02-14T10:38:33;101617.91;;;7.62
20490;BMP280;10403;54.092;12.122;2024-02-14T10:41:02;101603.97;;;7.58
20490;BMP280;10403;54.092;12.122;2024-02-14T10:43:32;101617.97;;;7.68
20490;BMP280;10403;54.092;12.122;2024-02-14T10:46:12;101611.94;;;7.70
20490;BMP280;10403;54.092;12.122;2024-02-14T10:48:42;101594.44;;;7.60
20490;BMP280;10403;54.092;12.122;2024-02-14T10:51:12;101555.09;;;7.36
20490;BMP280;10403;54.092;12.122;2024-02-14T10:53:46;101589.25;;;7.62
20490;BMP280;10403;54.092;12.122;2024-02-14T10:56:18;101601.56;;;7.73
20490;BMP280;10403;54.092;12.122;2024-02-14T10:58:51;101605.91;;;7.77
20490;BMP280;10403;54.092;12.122;2024-02-14T11:01:22;101578.84;;;7.65
20490;BMP280;10403;54.092;12.122;2024-02-14T11:03:52;101585.94;;;7.73
20490;BMP280;10403;54.092;12.122;2024-02-14T11:06:19;101569.38;;;7.70
20490;BMP280;10403;54.092;12.122;2024-02-14T11:09:04;101585.13;;;7.84
20490;BMP280;10403;54.092;12.122;2024-02-14T11:11:37;101594.78;;;7.91
20490;BMP280;10403;54.092;12.122;2024-02-14T11:14:06;101586.94;;;7.89
20490;BMP280;10403;54.092;12.122;2024-02-14T11:16:34;101584.41;;;7.97
20490;BMP280;10403;54.092;12.122;2024-02-14T11:21:47;101581.03;;;8.07
20490;BMP280;10403;54.092;12.122;2024-02-14T11:24:15;101602.84;;;8.16
20490;BMP280;10403;54.092;12.122;2024-02-14T11:26:48;101563.66;;;8.03
20490;BMP280;10403;54.092;12.122;2024-02-14T11:29:20;101587.22;;;8.18
20490;BMP280;10403;54.092;12.122;2024-02-14T11:31:59;101599.47;;;8.25
20490;BMP280;10403;54.092;12.122;2024-02-14T11:34:29;101579.41;;;8.16
20490;BMP280;10403;54.092;12.122;2024-02-14T11:37:04;101582.91;;;8.20
20490;BMP280;10403;54.092;12.122;2024-02-14T11:39:35;101580.28;;;8.17
20490;BMP280;10403;54.092;12.122;2024-02-14T11:42:04;101585.53;;;8.20
20490;BMP280;10403;54.092;12.122;2024-02-14T11:44:31;101539.28;;;7.98
20490;BMP280;10403;54.092;12.122;2024-02-14T11:47:00;101586.44;;;8.27
20490;BMP280;10403;54.092;12.122;2024-02-14T11:49:27;101589.06;;;8.28
20490;BMP280;10403;54.092;12.122;2024-02-14T11:51:54;101584.72;;;8.29
20490;BMP280;10403;54.092;12.122;2024-02-14T11:54:22;101587.34;;;8.30
20490;BMP280;10403;54.092;12.122;2024-02-14T11:56:51;101581.25;;;8.28
20490;BMP280;10403;54.092;12.122;2024-02-14T11:59:18;101585.66;;;8.35
20490;BMP280;10403;54.092;12.122;2024-02-14T12:01:47;101590.00;;;8.35
20490;BMP280;10403;54.092;12.122;2024-02-14T12:04:17;101582.13;;;8.29
20490;BMP280;10403;54.092;12.122;2024-02-14T12:06:44;101586.50;;;8.33
20490;BMP280;10403;54.092;12.122;2024-02-14T12:09:12;101589.13;;;8.33
20490;BMP280;10403;54.092;12.122;2024-02-14T12:11:41;101569.94;;;8.28
20490;BMP280;10403;54.092;12.122;2024-02-14T12:14:13;101591.84;;;8.42
20490;BMP280;10403;54.092;12.122;2024-02-14T12:16:41;101585.75;;;8.41
20490;BMP280;10403;54.092;12.122;2024-02-14T12:19:14;101585.78;;;8.49
20490;BMP280;10403;54.092;12.122;2024-02-14T12:21:44;101587.56;;;8.54
20490;BMP280;10403;54.092;12.122;2024-02-14T12:24:13;101588.47;;;8.58
20490;BMP280;10403;54.092;12.122;2024-02-14T12:26:42;101589.28;;;8.52
20490;BMP280;10403;54.092;12.122;2024-02-14T12:29:13;101603.25;;;8.58
20490;BMP280;10403;54.092;12.122;2024-02-14T12:31:41;101591.03;;;8.52
20490;BMP280;10403;54.092;12.122;2024-02-14T12:34:11;101595.41;;;8.56
20490;BMP280;10403;54.092;12.122;2024-02-14T12:36:39;101596.28;;;8.57
20490;BMP280;10403;54.092;12.122;2024-02-14T12:39:07;101578.84;;;8.52
20490;BMP280;10403;54.092;12.122;2024-02-14T12:41:37;101559.63;;;8.38
20490;BMP280;10403;54.092;12.122;2024-02-14T12:44:07;101588.50;;;8.60
20490;BMP280;10403;54.092;12.122;2024-02-14T12:46:34;101585.03;;;8.61
20490;BMP280;10403;54.092;12.122;2024-02-14T12:49:05;101589.38;;;8.62
20490;BMP280;10403;54.092;12.122;2024-02-14T12:51:33;101577.16;;;8.58
20490;BMP280;10403;54.092;12.122;2024-02-14T12:54:00;101581.53;;;8.63
20490;BMP280;10403;54.092;12.122;2024-02-14T12:56:27;101571.94;;;8.58
20490;BMP280;10403;54.092;12.122;2024-02-14T12:58:55;101588.56;;;8.70
20490;BMP280;10403;54.092;12.122;2024-02-14T13:01:22;101580.72;;;8.69
20490;BMP280;10403;54.092;12.122;2024-02-14T13:03:50;101591.22;;;8.76
20490;BMP280;10403;54.092;12.122;2024-02-14T13:06:18;101592.97;;;8.79
20490;BMP280;10403;54.092;12.122;2024-02-14T13:08:46;101592.97;;;8.79
20490;BMP280;10403;54.092;12.122;2024-02-14T13:11:13;101575.50;;;8.72
20490;BMP280;10403;54.092;12.122;2024-02-14T13:13:41;101583.38;;;8.75
20490;BMP280;10403;54.092;12.122;2024-02-14T13:16:09;101597.34;;;8.83
20490;BMP280;10403;54.092;12.122;2024-02-14T13:18:37;101598.19;;;8.82
20490;BMP280;10403;54.092;12.122;2024-02-14T13:21:05;101585.97;;;8.73
20490;BMP280;10403;54.092;12.122;2024-02-14T13:23:33;101591.22;;;8.78
20490;BMP280;10403;54.092;12.122;2024-02-14T13:26:15;101594.69;;;8.75
20490;BMP280;10403;54.092;12.122;2024-02-14T13:29:01;101600.81;;;8.79
20490;BMP280;10403;54.092;12.122;2024-02-14T13:31:47;101597.31;;;8.78
20490;BMP280;10403;54.092;12.122;2024-02-14T13:34:14;101592.06;;;8.74
20490;BMP280;10403;54.092;12.122;2024-02-14T13:36:43;101599.94;;;8.83
20490;BMP280;10403;54.092;12.122;2024-02-14T13:39:32;101604.31;;;8.85
20490;BMP280;10403;54.092;12.122;2024-02-14T13:42:21;101605.19;;;8.86
20490;BMP280;10403;54.092;12.122;2024-02-14T13:44:49;101598.25;;;8.86
20490;BMP280;10403;54.092;12.122;2024-02-14T13:47:18;101591.25;;;8.84
20490;BMP280;10403;54.092;12.122;2024-02-14T13:50:10;101597.38;;;8.87
20490;BMP280;10403;54.092;12.122;2024-02-14T13:52:53;101588.66;;;8.81
20490;BMP280;10403;54.092;12.122;2024-02-14T13:55:21;101601.75;;;8.90
20490;BMP280;10403;54.092;12.122;2024-02-14T13:57:51;101586.09;;;8.90
20490;BMP280;10403;54.092;12.122;2024-02-14T14:00:21;101586.97;;;8.95
20490;BMP280;10403;54.092;12.122;2024-02-14T14:03:08;101596.56;;;8.96
20490;BMP280;10403;54.092;12.122;2024-02-14T14:05:54;101580.88;;;8.93
20490;BMP280;10403;54.092;12.122;2024-02-14T14:08:23;101597.44;;;9.01
20490;BMP280;10403;54.092;12.122;2024-02-14T14:10:50;101593.09;;;9.02
20490;BMP280;10403;54.092;12.122;2024-02-14T14:13:36;101596.59;;;9.04